Sappho, Washington
Current Conditions -  °F | °C
As of 11:06 AM on Monday 20 Oct 2014 (Local Time) from KUIL Reporting Station
Haze Haze  
Wind Chill: 59°   Ceiling: 2600
Heat Index: 59°   Visibility: 2.5mi
Dew Point: 56°   Wind: 5mph
Humidity: 90%   Direction: 160°SSE
Pressure: 29.71"   Gusts: NA
Location:  48.0738°N, 124.288°W
Report Text: KUIL 201806Z AUTO 16004KT 2 1/2SM BR SCT020 BKN026 BKN070 15/13 A2971 RMK AO2 T01500133
Loading
Personal Weather Stations






























Interactive Weather Map
Tropical Storm Tracking
New forecast layout! Learn more

10-Day Weather Forecast

Advertisements
Track Severe Weather on mobile